createdAt,value
2018-09-19T00:01:31.383Z,62.42
2018-09-19T00:04:55.889Z,62.86
2018-09-19T00:08:20.302Z,63.00
2018-09-19T00:11:44.718Z,63.91
2018-09-19T00:15:09.175Z,64.34
2018-09-19T00:18:33.621Z,63.45
2018-09-19T00:21:58.044Z,64.15
2018-09-19T00:25:22.476Z,64.70
2018-09-19T00:28:46.897Z,64.21
2018-09-19T00:32:11.423Z,64.10
2018-09-19T00:35:35.952Z,63.90
2018-09-19T00:39:00.430Z,64.02
2018-09-19T00:42:24.889Z,64.90
2018-09-19T00:45:49.314Z,64.39
2018-09-19T00:49:13.721Z,65.00
2018-09-19T00:52:38.187Z,65.31
2018-09-19T00:56:02.657Z,66.27
2018-09-19T00:59:27.093Z,66.53
2018-09-19T01:02:51.543Z,67.15
2018-09-19T01:06:16.001Z,67.39
2018-09-19T01:09:40.417Z,67.36
2018-09-19T01:13:04.807Z,67.13
2018-09-19T01:16:29.204Z,65.97
2018-09-19T01:19:53.669Z,66.21
2018-09-19T01:23:18.120Z,66.06
2018-09-19T01:26:42.534Z,66.28
2018-09-19T01:30:07.561Z,67.05
2018-09-19T01:33:31.956Z,67.15
2018-09-19T01:36:56.406Z,67.20
2018-09-19T01:40:20.842Z,67.28
2018-09-19T01:43:45.286Z,67.87
2018-09-19T01:47:09.703Z,67.27
2018-09-19T01:50:34.124Z,67.83
2018-09-19T01:53:58.547Z,68.31
2018-09-19T01:57:23.035Z,68.10
2018-09-19T02:00:47.465Z,68.21
2018-09-19T02:04:11.910Z,67.95
2018-09-19T02:07:36.551Z,67.65
2018-09-19T02:11:00.949Z,67.96
2018-09-19T02:14:25.382Z,67.59
2018-09-19T02:17:49.833Z,68.50
2018-09-19T02:21:14.267Z,69.08
2018-09-19T02:24:38.735Z,68.93
2018-09-19T02:28:03.505Z,68.87
2018-09-19T02:31:28.211Z,68.30
2018-09-19T02:34:52.668Z,68.31
2018-09-19T02:38:17.107Z,68.80
2018-09-19T02:41:41.506Z,69.33
2018-09-19T02:45:06.023Z,70.13
2018-09-19T02:48:30.457Z,69.84
2018-09-19T02:51:57.947Z,69.36
2018-09-19T02:55:22.552Z,70.49
2018-09-19T02:58:47.062Z,70.33
2018-09-19T03:02:11.445Z,70.61
2018-09-19T03:05:35.846Z,68.94
2018-09-19T03:09:00.278Z,68.64
2018-09-19T03:12:24.764Z,69.08
2018-09-19T03:15:49.170Z,69.61
2018-09-19T03:19:13.611Z,69.72
2018-09-19T03:22:38.095Z,69.73
2018-09-19T03:26:02.515Z,70.44
2018-09-19T03:29:27.150Z,68.71
2018-09-19T03:32:51.606Z,67.95
2018-09-19T03:36:16.032Z,68.47
2018-09-19T03:39:40.452Z,69.04
2018-09-19T03:43:04.888Z,68.01
2018-09-19T03:46:29.313Z,67.53
2018-09-19T03:49:53.772Z,68.58
2018-09-19T03:53:18.192Z,67.70
2018-09-19T03:56:42.626Z,67.84
2018-09-19T04:00:07.156Z,68.46
2018-09-19T04:03:31.590Z,68.79
2018-09-19T04:06:56.005Z,68.48
2018-09-19T04:10:20.500Z,67.75
2018-09-19T04:13:44.906Z,68.43
2018-09-19T04:17:09.345Z,68.15
2018-09-19T04:20:33.768Z,69.40
2018-09-19T04:23:58.227Z,68.92
2018-09-19T04:27:22.641Z,69.28
2018-09-19T04:30:47.077Z,69.86
2018-09-19T04:34:11.469Z,69.79
2018-09-19T04:37:35.951Z,69.89
2018-09-19T04:41:00.386Z,70.81
2018-09-19T04:44:24.993Z,71.48
2018-09-19T04:47:49.581Z,72.14
2018-09-19T04:51:14.016Z,70.95
2018-09-19T04:54:38.437Z,71.87
2018-09-19T04:58:02.848Z,71.91
2018-09-19T05:01:27.301Z,71.35
2018-09-19T05:04:51.749Z,70.72
2018-09-19T05:08:16.276Z,71.22
2018-09-19T05:11:40.856Z,71.24
2018-09-19T05:15:05.310Z,70.96
2018-09-19T05:18:29.838Z,70.98
2018-09-19T05:21:54.307Z,71.05
2018-09-19T05:25:18.767Z,70.59
2018-09-19T05:28:43.192Z,70.96
2018-09-19T05:32:07.661Z,70.22
2018-09-19T05:35:32.095Z,70.43
2018-09-19T05:38:56.562Z,69.93
2018-09-19T05:42:21.006Z,69.99
2018-09-19T05:45:45.458Z,69.62
2018-09-19T05:49:09.889Z,69.39
2018-09-19T05:52:34.316Z,68.88
2018-09-19T05:55:58.831Z,68.57
2018-09-19T05:59:23.252Z,67.76
2018-09-19T06:02:47.669Z,67.89
2018-09-19T06:06:12.116Z,66.40
2018-09-19T06:09:36.531Z,66.26
2018-09-19T06:13:01.003Z,66.29
2018-09-19T06:16:25.384Z,65.68
2018-09-19T06:19:50.268Z,65.31
2018-09-19T06:23:14.686Z,65.45
2018-09-19T06:26:39.123Z,66.10
2018-09-19T06:30:03.595Z,65.07
2018-09-19T06:33:28.043Z,64.98
2018-09-19T06:36:52.504Z,64.98
2018-09-19T06:40:16.945Z,63.92
2018-09-19T06:43:41.358Z,63.61
2018-09-19T06:47:05.916Z,63.97
2018-09-19T06:50:30.327Z,64.18
2018-09-19T06:53:54.792Z,63.32
2018-09-19T06:57:19.257Z,63.15
2018-09-19T07:00:43.691Z,62.67
2018-09-19T07:04:08.196Z,62.22
2018-09-19T07:07:32.660Z,62.32
2018-09-19T07:10:57.111Z,62.32
2018-09-19T07:14:21.592Z,61.91
2018-09-19T07:17:46.023Z,61.56
2018-09-19T07:21:10.554Z,61.05
2018-09-19T07:24:34.958Z,60.83
2018-09-19T07:27:59.482Z,60.12
2018-09-19T07:31:23.909Z,59.78
2018-09-19T07:34:48.401Z,60.33
2018-09-19T07:38:12.796Z,59.11
2018-09-19T07:41:37.194Z,59.72
2018-09-19T07:45:01.651Z,59.45
2018-09-19T07:48:26.079Z,59.58
2018-09-19T07:51:50.555Z,59.56
2018-09-19T07:55:15.082Z,59.12
2018-09-19T07:58:39.529Z,59.00
2018-09-19T08:02:03.954Z,58.41
2018-09-19T08:05:28.394Z,58.32
2018-09-19T08:08:52.834Z,58.49
2018-09-19T08:12:17.201Z,58.00
2018-09-19T08:15:41.625Z,58.09
2018-09-19T08:19:06.028Z,57.56
2018-09-19T08:22:30.550Z,58.35
2018-09-19T08:25:54.886Z,57.77
2018-09-19T08:29:19.317Z,57.54
2018-09-19T08:32:43.778Z,57.44
2018-09-19T08:36:08.306Z,57.78
2018-09-19T08:39:32.778Z,57.53
2018-09-19T08:42:57.242Z,57.21
2018-09-19T08:46:21.712Z,55.54
2018-09-19T08:49:46.185Z,56.50
2018-09-19T08:53:13.232Z,56.75
2018-09-19T08:56:37.635Z,55.89
2018-09-19T09:00:02.133Z,56.01
2018-09-19T09:03:26.599Z,55.24
2018-09-19T09:06:51.059Z,55.18
2018-09-19T09:10:18.466Z,53.72
2018-09-19T09:13:42.944Z,52.75
2018-09-19T09:17:07.322Z,53.94
2018-09-19T09:20:31.789Z,53.56
2018-09-19T09:23:56.224Z,53.28
2018-09-19T09:27:20.764Z,51.88
2018-09-19T09:30:45.138Z,51.67
2018-09-19T09:34:09.675Z,52.23
2018-09-19T09:37:34.326Z,51.32
2018-09-19T09:40:58.769Z,50.90
2018-09-19T09:44:23.294Z,50.03
2018-09-19T09:47:47.723Z,49.41
2018-09-19T09:51:12.140Z,47.20
2018-09-19T09:54:36.766Z,47.48
2018-09-19T09:58:01.322Z,47.15
2018-09-19T10:01:25.791Z,45.49
2018-09-19T10:04:50.240Z,47.45
2018-09-19T10:08:14.693Z,46.67
2018-09-19T10:11:39.126Z,47.26
2018-09-19T10:15:03.527Z,47.28
2018-09-19T10:18:28.012Z,47.39
2018-09-19T10:21:52.428Z,47.52
2018-09-19T10:25:16.919Z,46.36
2018-09-19T10:28:41.367Z,46.40
2018-09-19T10:32:05.893Z,46.16
2018-09-19T10:35:30.325Z,46.50
2018-09-19T10:38:54.798Z,46.20
2018-09-19T10:42:19.227Z,46.81
2018-09-19T10:45:43.683Z,46.27
2018-09-19T10:49:08.184Z,45.00
2018-09-19T10:52:32.594Z,46.10
2018-09-19T10:55:57.106Z,46.29
2018-09-19T10:59:21.565Z,46.69
2018-09-19T11:02:46.040Z,46.91
2018-09-19T11:06:10.497Z,47.64
2018-09-19T11:09:34.925Z,46.84
2018-09-19T11:12:59.344Z,45.93
2018-09-19T11:16:23.755Z,42.58
2018-09-19T11:19:48.331Z,42.25
2018-09-19T11:23:12.785Z,41.55
2018-09-19T11:26:37.207Z,41.90
2018-09-19T11:30:01.666Z,39.85
2018-09-19T11:33:26.106Z,39.00
2018-09-19T11:36:50.528Z,36.46
2018-09-19T11:40:14.967Z,37.56
2018-09-19T11:43:39.483Z,37.19
2018-09-19T11:47:03.959Z,36.28
2018-09-19T11:50:28.446Z,35.61
2018-09-19T11:53:52.889Z,36.14
2018-09-19T11:57:17.566Z,35.43
2018-09-19T12:00:41.980Z,33.10
2018-09-19T12:04:06.482Z,34.65
2018-09-19T12:07:31.318Z,33.24
2018-09-19T12:10:55.751Z,33.98
2018-09-19T12:14:20.207Z,32.09
2018-09-19T12:17:44.680Z,32.05
2018-09-19T12:21:09.120Z,30.25
2018-09-19T12:24:33.528Z,31.27
2018-09-19T12:27:58.179Z,30.21
2018-09-19T12:31:22.621Z,31.97
2018-09-19T12:34:47.075Z,32.72
2018-09-19T12:38:11.923Z,32.10
2018-09-19T12:41:36.398Z,32.59
2018-09-19T12:45:00.800Z,32.27
2018-09-19T12:48:25.199Z,33.07
2018-09-19T12:51:49.630Z,32.84
2018-09-19T12:55:14.110Z,34.97
2018-09-19T12:58:38.973Z,34.71
2018-09-19T13:02:03.386Z,33.43
2018-09-19T13:05:27.829Z,32.34
2018-09-19T13:08:52.282Z,31.81
2018-09-19T13:12:16.940Z,30.89
2018-09-19T13:15:41.343Z,31.29
2018-09-19T13:19:05.777Z,29.67
2018-09-19T13:22:30.224Z,31.23
2018-09-19T13:25:54.633Z,30.18
2018-09-19T13:29:19.073Z,27.51
2018-09-19T13:32:43.496Z,29.05
2018-09-19T13:36:07.903Z,28.87
2018-09-19T13:39:32.337Z,29.93
2018-09-19T13:42:56.802Z,29.11
2018-09-19T13:46:21.308Z,26.97
2018-09-19T13:49:52.767Z,26.87
2018-09-19T13:53:21.438Z,26.47
2018-09-19T13:56:45.853Z,25.99
2018-09-19T14:00:10.299Z,27.70
2018-09-19T14:03:34.729Z,25.55
2018-09-19T14:06:59.115Z,27.10
2018-09-19T14:10:23.592Z,25.71
2018-09-19T14:13:48.008Z,26.36
2018-09-19T14:17:12.399Z,26.68
2018-09-19T14:20:37.125Z,25.17
2018-09-19T14:24:01.600Z,24.30
2018-09-19T14:27:26.013Z,26.87
2018-09-19T14:30:50.422Z,27.63
2018-09-19T14:34:14.850Z,25.50
2018-09-19T14:37:39.287Z,26.42
2018-09-19T14:41:03.759Z,26.00
2018-09-19T14:44:28.188Z,26.13
2018-09-19T14:47:52.708Z,27.79
2018-09-19T14:51:17.123Z,25.16
2018-09-19T14:54:41.572Z,25.26
2018-09-19T14:58:06.025Z,24.49
2018-09-19T15:01:30.417Z,26.61
2018-09-19T15:04:55.020Z,26.43
2018-09-19T15:08:19.465Z,26.15
2018-09-19T15:11:43.901Z,24.57
2018-09-19T15:15:08.318Z,24.83
2018-09-19T15:18:32.752Z,26.37
2018-09-19T15:21:57.317Z,27.46
2018-09-19T15:25:21.748Z,26.45
2018-09-19T15:28:46.230Z,26.50
2018-09-19T15:32:10.737Z,27.99
2018-09-19T15:35:35.232Z,27.45
2018-09-19T15:38:59.679Z,27.52
2018-09-19T15:42:24.165Z,28.47
2018-09-19T15:45:48.676Z,27.33
2018-09-19T15:49:13.115Z,26.31
2018-09-19T15:52:37.525Z,26.15
2018-09-19T15:56:03.393Z,25.21
2018-09-19T15:59:27.844Z,23.68
2018-09-19T16:02:52.285Z,26.44
2018-09-19T16:06:16.731Z,25.49
2018-09-19T16:09:41.192Z,26.39
2018-09-19T16:13:27.190Z,26.25
2018-09-19T16:16:51.652Z,25.71
2018-09-19T16:20:16.175Z,29.29
2018-09-19T16:23:40.598Z,29.67
2018-09-19T16:27:05.053Z,29.41
2018-09-19T16:30:29.514Z,29.14
2018-09-19T16:33:54.040Z,29.94
2018-09-19T16:37:18.461Z,29.92
2018-09-19T16:40:42.902Z,31.20
2018-09-19T16:44:07.582Z,31.70
2018-09-19T16:47:32.079Z,32.85
2018-09-19T16:50:56.497Z,33.52
2018-09-19T16:54:20.940Z,33.18
2018-09-19T16:57:45.373Z,34.34
2018-09-19T17:01:09.864Z,35.35
2018-09-19T17:04:34.357Z,34.98
2018-09-19T17:07:58.922Z,34.97
2018-09-19T17:11:23.401Z,35.22
2018-09-19T17:14:47.803Z,35.26
2018-09-19T17:18:12.233Z,35.67
2018-09-19T17:23:12.525Z,36.63
2018-09-19T17:26:36.985Z,37.31
2018-09-19T17:30:01.427Z,38.53
2018-09-19T17:33:26.104Z,37.97
2018-09-19T17:36:50.637Z,37.52
2018-09-19T17:40:15.082Z,37.44
2018-09-19T17:43:39.472Z,37.20
2018-09-19T17:47:03.978Z,38.76
2018-09-19T17:50:28.501Z,38.88
2018-09-19T17:53:52.955Z,38.33
2018-09-19T17:57:17.422Z,38.52
2018-09-19T18:00:41.857Z,39.79
2018-09-19T18:04:06.390Z,38.28
2018-09-19T18:07:30.797Z,38.27
2018-09-19T18:10:55.261Z,37.93
2018-09-19T18:14:19.762Z,38.28
2018-09-19T18:17:44.265Z,38.11
2018-09-19T18:21:08.798Z,38.82
2018-09-19T18:24:33.256Z,37.89
2018-09-19T18:27:57.675Z,38.53
2018-09-19T18:31:22.119Z,38.98
2018-09-19T18:34:46.593Z,39.30
2018-09-19T18:38:11.147Z,38.30
2018-09-19T18:41:36.078Z,38.97
2018-09-19T18:45:00.521Z,40.37
2018-09-19T18:48:25.243Z,40.40
2018-09-19T18:51:49.732Z,41.11
2018-09-19T18:55:14.225Z,41.28
2018-09-19T18:58:38.816Z,42.50
2018-09-19T19:02:03.290Z,43.52
2018-09-19T19:05:27.745Z,42.43
2018-09-19T19:08:52.205Z,43.77
2018-09-19T19:12:17.966Z,42.84
2018-09-19T19:15:42.366Z,45.00
2018-09-19T19:19:07.820Z,44.27
2018-09-19T19:22:32.348Z,45.29
2018-09-19T19:25:58.227Z,46.61
2018-09-19T19:29:23.301Z,46.28
2018-09-19T19:32:48.862Z,47.63
2018-09-19T19:36:13.709Z,47.74
2018-09-19T19:39:38.381Z,46.90
2018-09-19T19:43:03.975Z,47.36
2018-09-19T19:46:29.767Z,48.66
2018-09-19T19:49:55.042Z,48.10
2018-09-19T19:53:19.496Z,47.94
2018-09-19T19:56:51.128Z,48.71
2018-09-19T20:00:15.587Z,49.31
2018-09-19T20:03:40.207Z,48.93
2018-09-19T20:07:05.337Z,49.64
2018-09-19T20:10:34.283Z,50.42
2018-09-19T20:14:01.450Z,49.88
2018-09-19T20:17:25.991Z,48.65
2018-09-19T20:20:50.454Z,50.00
2018-09-19T20:24:14.932Z,48.03
2018-09-19T20:27:39.539Z,48.01
2018-09-19T20:31:04.142Z,49.27
2018-09-19T20:34:28.691Z,48.52
2018-09-19T20:37:53.203Z,47.63
2018-09-19T20:41:17.688Z,48.00
2018-09-19T20:44:42.187Z,48.71
2018-09-19T20:48:06.862Z,47.41
2018-09-19T20:51:31.346Z,47.56
2018-09-19T20:54:55.836Z,48.06
2018-09-19T20:58:20.415Z,47.93
2018-09-19T21:01:44.873Z,47.58
2018-09-19T21:05:09.419Z,48.38
2018-09-19T21:08:33.845Z,47.37
2018-09-19T21:11:58.328Z,47.94
2018-09-19T21:15:23.453Z,48.54
2018-09-19T21:18:47.954Z,47.89
2018-09-19T21:22:12.637Z,48.23
2018-09-19T21:25:36.943Z,48.14
2018-09-19T21:29:01.419Z,48.51
2018-09-19T21:32:26.019Z,48.66
2018-09-19T21:35:50.449Z,48.55
2018-09-19T21:39:14.864Z,49.93
2018-09-19T21:42:39.291Z,51.13
2018-09-19T21:46:03.713Z,50.54
2018-09-19T21:49:28.147Z,52.65
2018-09-19T21:52:52.575Z,53.23
2018-09-19T21:56:16.995Z,51.98
2018-09-19T21:59:41.444Z,52.79
2018-09-19T22:03:06.078Z,54.35
2018-09-19T22:06:30.488Z,54.04
2018-09-19T22:10:01.676Z,54.60
2018-09-19T22:13:26.113Z,54.55
2018-09-19T22:16:50.519Z,53.66
2018-09-19T22:20:14.973Z,53.77
2018-09-19T22:23:39.386Z,53.85
2018-09-19T22:27:03.827Z,54.31
2018-09-19T22:30:28.277Z,54.53
2018-09-19T22:33:52.702Z,53.85
2018-09-19T22:37:17.118Z,54.01
2018-09-19T22:40:41.539Z,54.61
2018-09-19T22:44:06.049Z,53.78
2018-09-19T22:47:30.489Z,54.65
2018-09-19T22:50:54.915Z,54.46
2018-09-19T22:54:19.339Z,53.90
2018-09-19T22:57:43.741Z,55.16
2018-09-19T23:01:08.161Z,54.55
2018-09-19T23:04:32.609Z,54.82
2018-09-19T23:07:57.035Z,55.42
2018-09-19T23:11:21.449Z,56.17
2018-09-19T23:14:45.918Z,54.97
2018-09-19T23:18:10.357Z,55.24
2018-09-19T23:21:34.800Z,55.03
2018-09-19T23:24:59.180Z,54.60
2018-09-19T23:28:23.616Z,55.77
2018-09-19T23:31:48.095Z,56.34
2018-09-19T23:35:12.526Z,55.43
2018-09-19T23:38:36.983Z,55.72
2018-09-19T23:42:02.351Z,56.27
2018-09-19T23:45:26.772Z,55.95
2018-09-19T23:48:51.177Z,55.83
2018-09-19T23:52:15.626Z,55.79
2018-09-19T23:55:40.065Z,56.73
2018-09-19T23:59:04.523Z,56.61
